Bookmark and Share
Track history (hours):
 

Marchen Maersk

Last reported at 2014-Apr-21 07:33 UTC. Time now 2014-Apr-21 07:39 UTC.
Position N 36°19' E 013°57'.

Length 367 m; draft 14.2 m.

Type: Cargo ship. MMSI: 220594000.

NotesDate/timePositionNaut miles runAvg speedWind from/ knotsBaromVisibWave heightAir tempDewpointWater temp
2014-Apr-21 07:33N 36°19' E 013°57'1313.3
2014-Apr-21 06:33N 36°25' E 013°42'1313.5
2014-Apr-21 05:33N 36°31' E 013°27'1413.5
2014-Apr-21 04:33N 36°37' E 013°12'14612.9
2014-Apr-20 17:15N 37°32' E 010°23'2612.3
2014-Apr-20 15:06N 37°32' E 009°49'4512.6
2014-Apr-20 11:33N 37°21' E 008°55'29312.2
2014-Apr-19 11:32N 36°58' E 002°48'1616.6
2014-Apr-19 10:33N 36°56' E 002°28'2118.4
2014-Apr-19 09:25N 36°53' E 002°02'7818.2
2014-Apr-19 05:07N 36°41' E 000°25'4618.0
2014-Apr-19 02:33N 36°34' W 000°31'22717.4
2014-Apr-18 13:33N 36°00' W 005°09'1715.8
2014-Apr-18 12:28N 35°55' W 005°30'1 0.1
2014-Apr-18 00:33N 35°54' W 005°30'6 6.3
2014-Apr-17 23:34N 35°54' W 005°37'1514.6
2014-Apr-17 22:33N 35°53' W 005°56'1817.7
2014-Apr-17 21:31N 35°55' W 006°18'6923.2
2014-Apr-17 18:34N 36°12' W 007°40'2423.0
2014-Apr-17 17:30N 36°18' W 008°09'2222.9
2014-Apr-17 16:33N 36°24' W 008°36'2323.1
2014-Apr-17 15:33N 36°30' W 009°03'2422.4
2014-Apr-17 14:29N 36°43' W 009°28'2222.9
2014-Apr-17 13:33N 37°03' W 009°38'2723.5
2014-Apr-17 12:23N 37°29' W 009°46'1923.4
2014-Apr-17 11:34N 37°48' W 009°52'2423.4
2014-Apr-17 10:33N 38°11' W 009°58'2923.2
2014-Apr-17 09:18N 38°39' W 010°05'1823.3
2014-Apr-17 08:33N 38°57' W 010°07'77321.5
2014-Apr-15 20:33N 50°15' W 001°25'2019.7
2014-Apr-15 19:33N 50°20' W 000°56'2121.3
2014-Apr-15 18:33N 50°26' W 000°24'2323.4
2014-Apr-15 17:33N 50°33' E 000°11'2524.6
2014-Apr-15 16:33N 50°44' E 000°46'2624.0
2014-Apr-15 15:29N 50°59' E 001°18'2021.9
2014-Apr-15 14:33N 51°12' E 001°44'2110.6
2014-Apr-15 12:34N 51°29' E 002°02'2121.2
2014-Apr-15 11:33N 51°45' E 002°26'5618.8
2014-Apr-15 08:33N 52°02' E 003°53'9 8.6
2014-Apr-15 07:34N 51°58' E 004°05'1 1.3
2014-Apr-15 06:32N 51°57' E 004°02'0 0.0
2014-Apr-15 05:32N 51°57' E 004°02'0 0.0
2014-Apr-15 03:32N 51°57' E 004°02'0 0.0
2014-Apr-15 02:32N 51°57' E 004°02'0 0.0
2014-Apr-15 01:32N 51°57' E 004°02'0 0.0
2014-Apr-14 22:32N 51°57' E 004°02'0 0.0
2014-Apr-14 21:32N 51°57' E 004°02'0 0.0
2014-Apr-14 20:32N 51°57' E 004°02'0 0.0
2014-Apr-14 19:32N 51°57' E 004°02'0 0.0
2014-Apr-14 18:32N 51°57' E 004°02'0 0.0
2014-Apr-14 15:32N 51°57' E 004°02'0 0.0
2014-Apr-14 14:32N 51°57' E 004°02'0 0.0
2014-Apr-14 13:32N 51°57' E 004°02'0 0.0
2014-Apr-14 11:32N 51°57' E 004°02'0 0.0
2014-Apr-14 10:32N 51°57' E 004°02'0 0.0
2014-Apr-14 09:32N 51°57' E 004°02'0 0.0
2014-Apr-14 08:32N 51°57' E 004°02'0 0.2
2014-Apr-14 07:33N 51°58' E 004°03'2 1.7
2014-Apr-14 06:33N 51°59' E 004°03'10 9.5
2014-Apr-14 05:33N 52°02' E 003°48'10815.5
2014-Apr-13 22:33N 53°45' E 004°44'1615.7
2014-Apr-13 21:32N 53°60' E 004°53'4615.3
2014-Apr-13 18:33N 54°42' E 005°24'1515.4
2014-Apr-13 17:33N 54°56' E 005°35'23212.8
2014-Apr-12 23:21N 57°53' E 010°07'911.4
2014-Apr-12 22:33N 57°53' E 010°24'1110.9
2014-Apr-12 21:33N 57°52' E 010°45'1110.8
2014-Apr-12 20:33N 57°47' E 011°03'1111.3
2014-Apr-12 19:33N 57°41' E 011°20'1110.8
2014-Apr-12 18:34N 57°35' E 011°37'10 9.7
2014-Apr-12 17:33N 57°41' E 011°51'0 0.4
2014-Apr-12 16:31N 57°41' E 011°52'0 0.0
2014-Apr-12 15:33N 57°41' E 011°52'0 0.0
2014-Apr-12 14:33N 57°41' E 011°52'0 0.0
2014-Apr-12 13:33N 57°41' E 011°52'0 0.0
2014-Apr-12 12:33N 57°41' E 011°52'0 0.0
2014-Apr-12 11:33N 57°41' E 011°52'0 0.0
2014-Apr-12 10:33N 57°41' E 011°52'0 0.0
2014-Apr-12 09:33N 57°41' E 011°52'0 0.0
2014-Apr-12 08:33N 57°41' E 011°52'0 0.0
2014-Apr-12 07:33N 57°41' E 011°52'0 0.0
2014-Apr-12 06:33N 57°41' E 011°52'0 0.0
2014-Apr-12 05:33N 57°41' E 011°52'0 0.0
2014-Apr-12 04:33N 57°41' E 011°52'0 0.0
2014-Apr-12 03:33N 57°41' E 011°52'0 0.0
2014-Apr-12 02:33N 57°41' E 011°52'0 0.0
2014-Apr-12 01:33N 57°41' E 011°52'0 0.0
2014-Apr-12 00:33N 57°41' E 011°52'0 0.0
2014-Apr-11 23:33N 57°41' E 011°52'0 0.0
2014-Apr-11 22:33N 57°41' E 011°52'0 0.0
2014-Apr-11 21:33N 57°41' E 011°52'0 0.0
2014-Apr-11 20:33N 57°41' E 011°52'0 0.0
2014-Apr-11 19:33N 57°41' E 011°52'0 0.0
2014-Apr-11 18:33N 57°41' E 011°52'3 3.3
2014-Apr-11 17:33N 57°41' E 011°46'9 9.5
2014-Apr-11 16:33N 57°38' E 011°29'1010.3
2014-Apr-11 15:33N 57°43' E 011°12'1413.7
2014-Apr-11 14:33N 57°51' E 010°51'1313.2
2014-Apr-11 13:33N 57°53' E 010°27'1414.2
2014-Apr-11 12:33N 57°52' E 010°00'  

Dump ship's entire track history

sailing weather and tide predictions

Marchen Maersk — OUIY2 — position and weather